Time;durP1;ratioP1;P1;durP2;ratioP2;P2;SDS_P1;SDS_P2;PMS_P1;PMS_P2;Temp;Humidity;BMP_temperature;BMP_pressure;BME280_temperature;BME280_humidity;BME280_pressure;Samples;Min_cycle;Max_cycle;Signal;HPM_P1;HPM_P2
2022/11/23 00:00:46;;;;;;;4.33;3.30;;;10.10;99.90;;;;;;5055849;28;20185;-69
2022/11/23 00:03:14;;;;;;;5.30;3.20;;;10.30;99.90;;;;;;5055197;28;20208;-69
2022/11/23 00:05:40;;;;;;;3.30;3.00;;;10.20;99.90;;;;;;5055817;28;20502;-69
2022/11/23 00:08:06;;;;;;;3.63;2.80;;;10.10;99.90;;;;;;5053213;28;20562;-69
2022/11/23 00:10:32;;;;;;;5.73;2.77;;;10.00;99.90;;;;;;5054846;28;20178;-69
2022/11/23 00:12:57;;;;;;;2.90;2.60;;;9.90;99.90;;;;;;5055038;28;20697;-69
2022/11/23 00:15:23;;;;;;;3.77;3.00;;;9.90;99.90;;;;;;5055497;28;20632;-69
2022/11/23 00:17:48;;;;;;;2.60;2.40;;;10.10;99.90;;;;;;5055842;28;20169;-69
2022/11/23 00:20:14;;;;;;;3.93;2.60;;;10.10;99.90;;;;;;5054884;28;20236;-69
2022/11/23 00:22:40;;;;;;;2.60;2.27;;;10.10;99.90;;;;;;5055409;28;20205;-69
2022/11/23 00:25:06;;;;;;;2.20;2.00;;;10.00;99.90;;;;;;5054860;28;20756;-69
2022/11/23 00:27:32;;;;;;;2.70;2.50;;;10.10;99.90;;;;;;5036608;28;20545;-68
2022/11/23 00:29:57;;;;;;;3.20;2.30;;;10.10;99.90;;;;;;5053338;28;20408;-69
2022/11/23 00:32:23;;;;;;;2.77;2.20;;;10.10;99.90;;;;;;5055306;28;20190;-69
2022/11/23 00:34:49;;;;;;;2.60;2.30;;;10.00;99.90;;;;;;5055216;28;20174;-69
2022/11/23 00:37:14;;;;;;;4.83;2.60;;;10.00;99.90;;;;;;5053918;28;20198;-68
2022/11/23 00:39:40;;;;;;;2.50;2.20;;;10.20;99.90;;;;;;5053367;28;20190;-69
2022/11/23 00:42:06;;;;;;;4.80;2.60;;;10.20;99.90;;;;;;5053706;28;20222;-69
2022/11/23 00:44:33;;;;;;;3.03;2.80;;;10.10;99.90;;;;;;5054314;28;20186;-69
2022/11/23 00:46:59;;;;;;;3.67;3.10;;;10.10;99.90;;;;;;5054455;28;20515;-69
2022/11/23 00:49:25;;;;;;;3.13;2.40;;;10.20;99.90;;;;;;5055288;28;20415;-68
2022/11/23 00:51:51;;;;;;;6.93;2.70;;;10.10;99.90;;;;;;5054975;28;20440;-69
2022/11/23 00:54:16;;;;;;;3.43;2.43;;;10.20;99.90;;;;;;5053915;28;20186;-69
2022/11/23 00:56:42;;;;;;;2.80;2.60;;;10.20;99.90;;;;;;5055130;28;20205;-69
2022/11/23 00:59:08;;;;;;;5.97;2.50;;;10.30;99.90;;;;;;5054200;28;20170;-69
2022/11/23 01:01:35;;;;;;;3.67;2.70;;;10.30;99.90;;;;;;5053861;28;20189;-69
2022/11/23 01:04:04;;;;;;;5.27;3.00;;;10.20;99.90;;;;;;5052586;28;20780;-69
2022/11/23 01:06:40;;;;;;;4.40;2.63;;;10.30;99.90;;;;;;5053877;28;20426;-69
2022/11/23 01:09:12;;;;;;;2.80;2.60;;;10.30;99.90;;;;;;5052415;28;20457;-68
2022/11/23 01:11:38;;;;;;;3.17;2.37;;;10.40;99.90;;;;;;5054177;28;20819;-69
2022/11/23 01:14:04;;;;;;;2.80;2.57;;;10.50;99.90;;;;;;5053322;28;20496;-69
2022/11/23 01:16:33;;;;;;;4.97;3.70;;;10.40;99.90;;;;;;5035624;28;20424;-69
2022/11/23 01:19:01;;;;;;;2.93;2.73;;;10.40;99.90;;;;;;5053294;28;20750;-70
2022/11/23 01:21:28;;;;;;;4.23;2.50;;;10.50;99.90;;;;;;5053921;28;20471;-69
2022/11/23 01:23:55;;;;;;;5.30;2.63;;;10.50;99.90;;;;;;5053274;28;20438;-68
2022/11/23 01:26:21;;;;;;;5.17;3.07;;;10.60;99.90;;;;;;5052701;28;20514;-69
2022/11/23 01:28:47;;;;;;;3.57;2.90;;;10.70;99.90;;;;;;5053861;28;20415;-69
2022/11/23 01:31:15;;;;;;;3.70;2.77;;;10.70;99.90;;;;;;5052485;28;20435;-69
2022/11/23 01:33:41;;;;;;;3.23;2.70;;;10.60;99.90;;;;;;5053536;28;20805;-69
2022/11/23 01:36:12;;;;;;;3.53;3.20;;;10.60;99.90;;;;;;5052966;28;20451;-69
2022/11/23 01:38:39;;;;;;;2.70;2.53;;;10.60;99.90;;;;;;5027210;28;20441;-69
2022/11/23 01:41:07;;;;;;;3.20;2.50;;;10.50;99.90;;;;;;5044548;28;20459;-69
2022/11/23 01:43:33;;;;;;;2.93;2.70;;;10.50;99.90;;;;;;5049631;28;20885;-69
2022/11/23 01:46:00;;;;;;;4.57;2.60;;;10.50;99.90;;;;;;5052812;28;20495;-70
2022/11/23 01:48:43;;;;;;;2.83;2.60;;;10.60;99.90;;;;;;5034695;28;20289;-69
2022/11/23 01:51:13;;;;;;;2.67;2.57;;;10.70;99.90;;;;;;5051733;28;20431;-69
2022/11/23 01:53:40;;;;;;;5.13;2.80;;;10.70;99.90;;;;;;5053407;28;20401;-68
2022/11/23 01:56:09;;;;;;;2.30;2.10;;;10.70;99.90;;;;;;5052466;28;20774;-69
2022/11/23 01:58:39;;;;;;;2.90;2.60;;;10.60;99.90;;;;;;5052242;28;20487;-69
2022/11/23 02:01:06;;;;;;;5.70;2.97;;;10.70;99.90;;;;;;5034590;28;20435;-69
2022/11/23 02:03:33;;;;;;;3.07;2.87;;;10.60;99.90;;;;;;5053202;28;20541;-69
2022/11/23 02:06:01;;;;;;;3.13;2.63;;;10.50;99.90;;;;;;5051897;28;20624;-70
2022/11/23 02:08:28;;;;;;;2.57;2.37;;;10.50;99.90;;;;;;5051650;28;20481;-69
2022/11/23 02:10:57;;;;;;;2.40;2.20;;;10.60;99.90;;;;;;5052241;28;20468;-69
2022/11/23 02:13:24;;;;;;;4.53;2.67;;;10.70;99.90;;;;;;5052192;28;20882;-69
2022/11/23 02:15:51;;;;;;;4.40;2.97;;;10.70;99.90;;;;;;5050460;28;20425;-68
2022/11/23 02:18:22;;;;;;;3.10;2.50;;;10.90;99.90;;;;;;5051875;28;20404;-69
2022/11/23 02:20:49;;;;;;;3.50;2.47;;;10.80;99.90;;;;;;5052918;28;20423;-69
2022/11/23 02:23:47;;;;;;;3.00;2.33;;;10.80;99.90;;;;;;5032597;28;20463;-68
2022/11/23 02:26:15;;;;;;;2.83;2.57;;;10.70;99.90;;;;;;5051788;28;20403;-68
2022/11/23 02:29:03;;;;;;;4.20;2.10;;;10.70;99.90;;;;;;5052819;28;20417;-68
2022/11/23 02:31:29;;;;;;;3.63;2.20;;;10.80;99.90;;;;;;5031825;28;20428;-69
2022/11/23 02:33:55;;;;;;;2.80;2.60;;;10.90;99.90;;;;;;5032759;28;20417;-69
2022/11/23 02:36:36;;;;;;;6.10;2.50;;;10.70;99.90;;;;;;5031952;28;20228;-69
2022/11/23 02:39:10;;;;;;;2.87;2.70;;;10.80;99.90;;;;;;5042199;28;20196;-70
2022/11/23 02:41:49;;;;;;;4.50;2.70;;;10.70;99.90;;;;;;5051930;28;20435;-69
2022/11/23 02:44:40;;;;;;;2.67;2.53;;;10.80;99.90;;;;;;5051760;28;20441;-68
2022/11/23 02:47:07;;;;;;;3.87;2.10;;;10.90;99.90;;;;;;5051403;28;20795;-69
2022/11/23 02:49:33;;;;;;;3.20;2.20;;;10.90;99.90;;;;;;5051781;28;20435;-69
2022/11/23 02:51:59;;;;;;;3.73;2.30;;;10.90;99.90;;;;;;5034733;28;20420;-69
2022/11/23 02:54:26;;;;;;;3.87;3.50;;;11.00;99.90;;;;;;5051128;28;20499;-69
2022/11/23 02:56:51;;;;;;;4.50;2.40;;;11.00;99.90;;;;;;5051572;28;20429;-69
2022/11/23 02:59:17;;;;;;;3.40;2.50;;;11.00;99.90;;;;;;5049952;28;20438;-69
2022/11/23 03:01:43;;;;;;;2.97;2.77;;;11.00;99.90;;;;;;5052046;28;20216;-69
2022/11/23 03:04:09;;;;;;;3.17;2.70;;;11.00;99.90;;;;;;5051408;28;20173;-69
2022/11/23 03:06:36;;;;;;;2.90;2.60;;;11.00;99.90;;;;;;5051134;28;20180;-69
2022/11/23 03:09:02;;;;;;;2.73;2.53;;;11.10;99.90;;;;;;5050096;28;20448;-69
2022/11/23 03:11:28;;;;;;;2.60;2.40;;;11.00;99.90;;;;;;5051723;28;20421;-69
2022/11/23 03:13:54;;;;;;;5.37;2.60;;;11.10;99.90;;;;;;5034157;28;20920;-69
2022/11/23 03:16:20;;;;;;;2.93;2.70;;;11.00;99.90;;;;;;5051300;28;20177;-69
2022/11/23 03:18:46;;;;;;;3.97;2.93;;;11.10;99.90;;;;;;5052006;28;20419;-69
2022/11/23 03:21:11;;;;;;;2.87;2.67;;;11.00;99.90;;;;;;5051179;28;20413;-69
2022/11/23 03:23:37;;;;;;;4.00;2.90;;;10.90;99.90;;;;;;5051638;28;20223;-69
2022/11/23 03:26:04;;;;;;;2.60;2.50;;;10.90;99.90;;;;;;5033896;28;20178;-70
2022/11/23 03:28:30;;;;;;;4.90;2.90;;;10.90;99.90;;;;;;5050948;28;20200;-69
2022/11/23 03:30:55;;;;;;;9.23;3.30;;;11.20;99.90;;;;;;5051994;28;20408;-69
2022/11/23 03:33:21;;;;;;;5.03;3.10;;;11.10;99.90;;;;;;5051167;28;20471;-69
2022/11/23 03:35:47;;;;;;;5.90;2.90;;;11.00;99.90;;;;;;5051775;28;20260;-69
2022/11/23 03:38:13;;;;;;;4.70;2.67;;;11.00;99.90;;;;;;5049745;28;20444;-69
2022/11/23 03:40:39;;;;;;;3.23;2.80;;;11.00;99.90;;;;;;5051263;28;20432;-69
2022/11/23 03:43:05;;;;;;;3.23;3.03;;;10.80;99.90;;;;;;5033561;28;20552;-70
2022/11/23 03:45:31;;;;;;;2.67;2.50;;;10.90;99.90;;;;;;5050756;28;20178;-69
2022/11/23 03:47:56;;;;;;;2.70;2.50;;;10.80;99.90;;;;;;5051861;28;20187;-69
2022/11/23 03:50:22;;;;;;;2.53;2.37;;;10.80;99.90;;;;;;5050168;28;20550;-69
2022/11/23 03:52:48;;;;;;;2.67;2.47;;;10.70;99.90;;;;;;5051690;28;20185;-69
2022/11/23 03:55:14;;;;;;;2.83;2.63;;;10.70;99.90;;;;;;5050238;28;20434;-69
2022/11/23 03:57:40;;;;;;;2.70;2.50;;;10.80;99.90;;;;;;5051689;28;20408;-69
2022/11/23 04:00:07;;;;;;;3.70;2.30;;;10.80;99.90;;;;;;5050203;28;20434;-70
2022/11/23 04:02:33;;;;;;;2.47;2.37;;;10.90;99.90;;;;;;5048459;28;20635;-72
2022/11/23 04:05:00;;;;;;;4.77;2.57;;;10.90;99.90;;;;;;5053588;28;20408;-72
2022/11/23 04:07:27;;;;;;;2.40;2.30;;;10.90;99.90;;;;;;5053439;28;20962;-70
2022/11/23 04:09:53;;;;;;;3.00;2.70;;;10.80;99.90;;;;;;5055372;28;20524;-70
2022/11/23 04:12:19;;;;;;;2.90;2.70;;;10.80;99.90;;;;;;5054902;28;20180;-71
2022/11/23 04:14:44;;;;;;;3.30;2.73;;;10.90;99.90;;;;;;5055904;28;20330;-71
2022/11/23 04:17:10;;;;;;;2.70;2.50;;;11.00;99.90;;;;;;5051502;28;20186;-71
2022/11/23 04:19:36;;;;;;;2.90;2.63;;;11.00;99.90;;;;;;5054886;28;20185;-71
2022/11/23 04:22:01;;;;;;;3.20;2.93;;;10.90;99.90;;;;;;5055411;28;20204;-71
2022/11/23 04:24:27;;;;;;;2.73;2.63;;;10.90;99.90;;;;;;5054608;28;20185;-71
2022/11/23 04:26:53;;;;;;;3.17;2.77;;;10.90;99.90;;;;;;5055432;28;20176;-70
2022/11/23 04:29:18;;;;;;;2.80;2.70;;;10.70;99.90;;;;;;5054763;28;20250;-71
2022/11/23 04:31:44;;;;;;;4.00;2.50;;;10.60;99.90;;;;;;5055380;28;20264;-71
2022/11/23 04:34:10;;;;;;;3.13;2.40;;;10.70;99.90;;;;;;5053587;28;20639;-71
2022/11/23 04:36:35;;;;;;;2.50;2.40;;;10.60;99.90;;;;;;5053830;28;20180;-71
2022/11/23 04:39:02;;;;;;;4.20;3.90;;;10.80;99.90;;;;;;5055062;28;20625;-71
2022/11/23 04:41:31;;;;;;;2.53;2.20;;;10.80;99.90;;;;;;5054500;28;20181;-71
2022/11/23 04:43:57;;;;;;;4.60;4.20;;;10.80;99.90;;;;;;5055101;28;20874;-71
2022/11/23 04:46:22;;;;;;;2.40;2.20;;;10.80;99.90;;;;;;5053840;28;20483;-71
2022/11/23 04:48:48;;;;;;;4.87;4.60;;;10.80;99.90;;;;;;5036758;28;20176;-71
2022/11/23 04:51:15;;;;;;;3.90;3.63;;;10.80;99.90;;;;;;5036066;28;20180;-71
2022/11/23 04:53:40;;;;;;;2.70;2.00;;;10.80;99.90;;;;;;5054900;28;20232;-71
2022/11/23 04:56:07;;;;;;;2.33;2.10;;;10.80;99.90;;;;;;5054876;28;20419;-71
2022/11/23 04:58:33;;;;;;;2.33;2.13;;;10.70;99.90;;;;;;5054842;28;20241;-71
2022/11/23 05:00:59;;;;;;;3.00;2.80;;;10.70;99.90;;;;;;5037041;28;20414;-71
2022/11/23 05:03:25;;;;;;;2.73;2.53;;;10.50;99.90;;;;;;5053190;28;20467;-71
2022/11/23 05:05:51;;;;;;;3.73;3.43;;;10.50;99.90;;;;;;5036417;28;20198;-71
2022/11/23 05:08:17;;;;;;;2.77;2.57;;;10.50;99.90;;;;;;5053437;28;20460;-71
2022/11/23 05:10:43;;;;;;;3.73;3.37;;;10.50;99.90;;;;;;5054578;28;20178;-71
2022/11/23 05:13:08;;;;;;;4.70;2.50;;;10.60;99.90;;;;;;5053678;28;21016;-71
2022/11/23 05:15:34;;;;;;;5.00;4.50;;;10.60;99.90;;;;;;5054430;28;20186;-72
2022/11/23 05:18:02;;;;;;;3.70;3.17;;;10.50;99.90;;;;;;5036524;28;20617;-70
2022/11/23 05:20:29;;;;;;;2.30;2.10;;;10.40;99.90;;;;;;5053870;28;20197;-71
2022/11/23 05:22:54;;;;;;;3.50;3.30;;;10.40;99.90;;;;;;5054002;28;20824;-71
2022/11/23 05:25:20;;;;;;;6.30;3.90;;;10.50;99.90;;;;;;5052871;28;20430;-71
2022/11/23 05:27:46;;;;;;;6.87;4.20;;;10.60;99.90;;;;;;5046837;28;20441;-71
2022/11/23 05:30:12;;;;;;;4.13;3.10;;;10.70;99.90;;;;;;5034875;28;20445;-71
2022/11/23 05:32:38;;;;;;;2.73;2.53;;;10.70;99.90;;;;;;5053297;28;20215;-70
2022/11/23 05:35:05;;;;;;;5.53;5.17;;;10.70;99.90;;;;;;5053275;28;20877;-71
2022/11/23 05:37:30;;;;;;;3.00;2.73;;;10.80;99.90;;;;;;5053054;28;20207;-71
2022/11/23 05:39:56;;;;;;;3.87;2.90;;;10.90;99.90;;;;;;5054068;28;20419;-71
2022/11/23 05:42:22;;;;;;;3.37;2.47;;;10.60;99.90;;;;;;5052532;28;20301;-71
2022/11/23 05:44:47;;;;;;;5.57;3.83;;;10.60;99.90;;;;;;5053458;28;20208;-71
2022/11/23 05:47:13;;;;;;;3.87;3.00;;;10.70;99.90;;;;;;5049454;28;20196;-71
2022/11/23 05:49:39;;;;;;;2.87;2.67;;;10.60;99.90;;;;;;5033877;28;20261;-71
2022/11/23 05:52:05;;;;;;;2.90;2.63;;;10.70;99.90;;;;;;5043275;28;20196;-71
2022/11/23 05:54:30;;;;;;;3.80;2.90;;;10.70;99.90;;;;;;5052603;28;20670;-71
2022/11/23 05:56:56;;;;;;;4.37;3.30;;;10.80;99.90;;;;;;5053726;28;20881;-71
2022/11/23 05:59:21;;;;;;;5.40;4.80;;;10.70;99.90;;;;;;5052573;28;20185;-71
2022/11/23 06:01:47;;;;;;;6.00;2.90;;;10.80;99.90;;;;;;5049947;28;20223;-71
2022/11/23 06:04:14;;;;;;;2.90;2.70;;;10.70;99.90;;;;;;5035347;28;20226;-71
2022/11/23 06:06:39;;;;;;;3.97;2.00;;;10.60;99.90;;;;;;5053301;28;20217;-70
2022/11/23 06:09:05;;;;;;;3.10;2.20;;;10.40;99.90;;;;;;5052560;28;20499;-70
2022/11/23 06:11:31;;;;;;;4.97;3.03;;;10.50;99.90;;;;;;5050413;28;20481;-71
2022/11/23 06:13:57;;;;;;;4.40;2.30;;;10.50;99.90;;;;;;5052806;28;20210;-70
2022/11/23 06:16:23;;;;;;;3.67;3.03;;;10.60;99.90;;;;;;5051280;28;20428;-71
2022/11/23 06:18:48;;;;;;;3.50;2.57;;;10.40;99.90;;;;;;5053015;28;20433;-71
2022/11/23 06:21:14;;;;;;;4.80;2.63;;;10.40;99.90;;;;;;5052699;28;20184;-71
2022/11/23 06:23:40;;;;;;;3.63;2.73;;;10.50;99.90;;;;;;5053273;28;20464;-71
2022/11/23 06:26:05;;;;;;;5.10;3.20;;;10.50;99.90;;;;;;5052517;28;20216;-70
2022/11/23 06:28:34;;;;;;;3.73;3.53;;;10.50;99.90;;;;;;5050028;28;20550;-70
2022/11/23 06:31:05;;;;;;;3.60;3.17;;;10.60;99.90;;;;;;5047322;28;20207;-70
2022/11/23 06:33:31;;;;;;;4.83;3.47;;;10.50;99.90;;;;;;5049420;28;20475;-70
2022/11/23 06:36:01;;;;;;;3.20;1.97;;;10.50;99.90;;;;;;5049327;28;20486;-69
2022/11/23 06:38:27;;;;;;;2.10;1.57;;;10.30;99.90;;;;;;5051249;28;20795;-69
2022/11/23 06:40:57;;;;;;;4.00;1.90;;;10.30;99.90;;;;;;5033379;28;20429;-69
2022/11/23 06:43:22;;;;;;;2.30;2.13;;;10.30;99.90;;;;;;5049514;28;20547;-69
2022/11/23 06:45:48;;;;;;;4.90;2.80;;;10.40;99.90;;;;;;5052847;28;20422;-69
2022/11/23 06:48:14;;;;;;;4.20;3.10;;;10.40;99.90;;;;;;5033632;28;20210;-70
2022/11/23 06:50:39;;;;;;;3.90;3.07;;;10.40;99.90;;;;;;5042421;28;20304;-70
2022/11/23 06:53:05;;;;;;;2.63;2.13;;;10.30;99.90;;;;;;5032813;28;20183;-70
2022/11/23 06:55:31;;;;;;;8.10;3.00;;;10.40;99.90;;;;;;5032019;28;20187;-70
2022/11/23 06:57:58;;;;;;;2.57;2.37;;;10.50;99.90;;;;;;5032384;28;20171;-69
2022/11/23 07:00:24;;;;;;;2.50;2.30;;;10.50;99.90;;;;;;5032147;28;20659;-69
2022/11/23 07:02:53;;;;;;;3.70;3.30;;;10.50;99.90;;;;;;5049840;28;20464;-69
2022/11/23 07:05:19;;;;;;;3.20;2.47;;;10.40;99.90;;;;;;5051583;28;20267;-68
2022/11/23 07:07:45;;;;;;;3.83;2.40;;;10.10;99.90;;;;;;5052525;28;20551;-69
2022/11/23 07:10:11;;;;;;;2.63;2.40;;;10.10;99.90;;;;;;5049796;28;20184;-69
2022/11/23 07:12:36;;;;;;;3.00;2.83;;;10.20;99.90;;;;;;5047524;28;20190;-69
2022/11/23 07:15:02;;;;;;;4.10;3.17;;;10.30;99.90;;;;;;5052519;28;20408;-69
2022/11/23 07:17:28;;;;;;;2.63;2.40;;;10.20;99.90;;;;;;5051218;28;20190;-70
2022/11/23 07:19:53;;;;;;;2.43;2.20;;;10.30;99.90;;;;;;5052462;28;20422;-69
2022/11/23 07:22:19;;;;;;;5.70;5.13;;;10.50;99.90;;;;;;5051011;28;20207;-69
2022/11/23 07:24:45;;;;;;;3.13;2.93;;;10.60;99.90;;;;;;5050498;28;20195;-69
2022/11/23 07:27:10;;;;;;;3.97;2.60;;;10.50;99.90;;;;;;5051582;28;20183;-69
2022/11/23 07:29:36;;;;;;;3.07;2.57;;;10.20;99.90;;;;;;5049762;28;20187;-69
2022/11/23 07:32:02;;;;;;;2.80;2.60;;;10.40;99.90;;;;;;5052384;28;20180;-70
2022/11/23 07:34:28;;;;;;;4.00;3.70;;;10.40;99.90;;;;;;5042345;28;20213;-70
2022/11/23 07:36:54;;;;;;;3.97;3.67;;;10.40;99.90;;;;;;5039438;28;20532;-69
2022/11/23 07:39:20;;;;;;;2.70;2.50;;;10.50;99.90;;;;;;5046725;28;20267;-70
2022/11/23 07:41:48;;;;;;;4.23;2.83;;;10.40;99.90;;;;;;5051168;28;20525;-70
2022/11/23 07:44:14;;;;;;;2.50;2.30;;;10.40;99.90;;;;;;5055434;28;20186;-69
2022/11/23 07:46:39;;;;;;;5.87;2.30;;;10.40;99.90;;;;;;5055615;28;20413;-69
2022/11/23 07:49:05;;;;;;;2.57;2.40;;;10.50;99.90;;;;;;5055095;28;20578;-69
2022/11/23 07:51:31;;;;;;;3.60;3.30;;;10.40;99.90;;;;;;5054646;28;20184;-69
2022/11/23 07:53:57;;;;;;;3.30;3.00;;;10.50;99.90;;;;;;5055650;28;20178;-70
2022/11/23 07:56:23;;;;;;;2.83;2.33;;;10.60;99.90;;;;;;5055394;28;20421;-69
2022/11/23 07:58:49;;;;;;;5.30;4.90;;;10.70;99.90;;;;;;5053909;28;20411;-69
2022/11/23 08:01:17;;;;;;;4.23;3.53;;;10.50;99.90;;;;;;5018360;28;20424;-68
2022/11/23 08:03:44;;;;;;;3.87;2.33;;;10.50;99.90;;;;;;5047594;28;20462;-69
2022/11/23 08:06:10;;;;;;;5.70;5.20;;;10.70;99.90;;;;;;5036024;28;20466;-68
2022/11/23 08:08:36;;;;;;;3.23;2.97;;;10.70;99.90;;;;;;5035757;28;20986;-68
2022/11/23 08:11:04;;;;;;;4.97;4.77;;;10.80;99.90;;;;;;5038011;28;20768;-68
2022/11/23 08:13:31;;;;;;;4.17;3.60;;;10.80;99.90;;;;;;5044635;28;20444;-68
2022/11/23 08:15:56;;;;;;;2.80;2.60;;;10.90;99.90;;;;;;5035685;28;20421;-68
2022/11/23 08:18:25;;;;;;;3.70;3.00;;;11.00;99.90;;;;;;5034725;28;20774;-69
2022/11/23 08:20:51;;;;;;;2.97;2.77;;;11.10;99.90;;;;;;5035470;28;20173;-69
2022/11/23 08:23:17;;;;;;;8.67;3.20;;;11.10;99.90;;;;;;5035145;28;20491;-69
2022/11/23 08:25:43;;;;;;;3.43;3.23;;;11.10;99.90;;;;;;5035458;28;20194;-68
2022/11/23 08:28:09;;;;;;;9.93;3.77;;;10.80;99.90;;;;;;5017822;28;20423;-68
2022/11/23 08:30:35;;;;;;;4.10;3.40;;;10.90;99.90;;;;;;5034810;28;20176;-69
2022/11/23 08:33:05;;;;;;;5.70;3.80;;;11.00;99.90;;;;;;5035079;28;20692;-69
2022/11/23 08:35:33;;;;;;;4.30;3.60;;;11.00;99.90;;;;;;5034727;28;20411;-69
2022/11/23 08:37:59;;;;;;;5.20;2.87;;;11.00;99.90;;;;;;5047956;28;20928;-69
2022/11/23 08:40:24;;;;;;;5.17;4.80;;;10.80;99.90;;;;;;5054595;28;20421;-69
2022/11/23 08:42:50;;;;;;;4.37;3.60;;;10.90;99.90;;;;;;5035939;28;20636;-69
2022/11/23 08:45:16;;;;;;;7.20;3.93;;;11.40;99.90;;;;;;5035183;28;20179;-69
2022/11/23 08:47:42;;;;;;;3.90;3.30;;;12.10;99.90;;;;;;5034505;28;20207;-69
2022/11/23 08:50:08;;;;;;;3.43;2.80;;;13.30;99.90;;;;;;5034938;28;20841;-69
2022/11/23 08:52:34;;;;;;;3.93;3.30;;;14.30;99.00;;;;;;5033673;28;20180;-69
2022/11/23 08:55:00;;;;;;;3.53;2.73;;;15.30;95.70;;;;;;5045313;28;20772;-69
2022/11/23 08:57:26;;;;;;;3.53;2.80;;;16.20;92.20;;;;;;5045450;28;20173;-69
2022/11/23 08:59:52;;;;;;;3.27;2.70;;;17.10;90.00;;;;;;5054454;28;20190;-68
2022/11/23 09:02:18;;;;;;;2.60;2.40;;;17.30;84.80;;;;;;5054797;28;20463;-70
2022/11/23 09:04:44;;;;;;;4.80;2.80;;;16.90;83.00;;;;;;5041952;28;20224;-69
2022/11/23 09:07:09;;;;;;;5.07;3.60;;;16.90;86.50;;;;;;5033395;28;20263;-69
2022/11/23 09:09:35;;;;;;;3.50;2.67;;;17.00;83.00;;;;;;5036177;28;20194;-69
2022/11/23 09:12:01;;;;;;;3.67;3.33;;;17.00;85.20;;;;;;5052685;28;20204;-69
2022/11/23 09:14:27;;;;;;;3.37;3.10;;;17.80;84.30;;;;;;5053402;28;20537;-70
2022/11/23 09:16:53;;;;;;;7.73;5.73;;;18.60;79.70;;;;;;5054364;28;20287;-69
2022/11/23 09:19:19;;;;;;;4.53;4.10;;;19.30;74.80;;;;;;5054533;28;20169;-69
2022/11/23 09:21:45;;;;;;;3.40;3.03;;;19.90;71.10;;;;;;5035374;28;20464;-69
2022/11/23 09:24:11;;;;;;;5.50;4.00;;;20.60;67.90;;;;;;5054531;28;20408;-69
2022/11/23 09:26:38;;;;;;;3.70;3.40;;;20.70;66.70;;;;;;5052747;28;20219;-69
2022/11/23 09:29:07;;;;;;;5.83;4.00;;;20.70;65.00;;;;;;5054279;28;20495;-69
2022/11/23 09:31:34;;;;;;;6.77;4.40;;;21.30;63.80;;;;;;5053349;28;20404;-69
2022/11/23 09:33:59;;;;;;;3.50;3.20;;;21.20;62.20;;;;;;5054135;28;20412;-69
2022/11/23 09:36:25;;;;;;;5.83;3.40;;;20.40;62.70;;;;;;5053345;28;20739;-70
2022/11/23 09:38:51;;;;;;;7.57;3.50;;;20.20;65.60;;;;;;5053902;28;20497;-69
2022/11/23 09:41:48;;;;;;;6.03;3.57;;;18.30;67.10;;;;;;5054048;28;20228;-69
2022/11/23 09:44:42;;;;;;;5.67;3.13;;;17.80;72.00;;;;;;5054175;28;20425;-69
2022/11/23 09:47:18;;;;;;;3.27;2.97;;;17.90;74.70;;;;;;5054086;28;20400;-69
2022/11/23 09:50:08;;;;;;;3.50;3.27;;;17.70;75.50;;;;;;5053406;28;20411;-69
2022/11/23 09:52:40;;;;;;;4.67;4.10;;;17.80;76.20;;;;;;5053364;28;20413;-69
2022/11/23 09:55:43;;;;;;;4.90;2.10;;;18.10;76.00;;;;;;5052885;28;20432;-69
2022/11/23 09:58:13;;;;;;;4.00;3.00;;;18.20;74.70;;;;;;5050015;28;20569;-69
2022/11/23 10:01:11;;;;;;;4.47;4.00;;;17.80;72.70;;;;;;5052916;28;20395;-69
2022/11/23 10:03:39;;;;;;;6.40;2.57;;;16.90;77.50;;;;;;5052742;28;20444;-69
2022/11/23 10:06:22;;;;;;;4.13;2.00;;;17.20;79.50;;;;;;5053226;28;20891;-69
2022/11/23 10:09:25;;;;;;;5.03;2.03;;;16.90;79.80;;;;;;5013407;28;20450;-69
2022/11/23 10:12:28;;;;;;;2.83;1.87;;;16.80;78.90;;;;;;5012781;28;20397;-69
2022/11/23 10:15:20;;;;;;;3.97;3.67;;;16.50;79.90;;;;;;5013966;28;20401;-69
2022/11/23 10:18:11;;;;;;;2.87;2.57;;;16.60;81.20;;;;;;5013210;28;21079;-69
2022/11/23 10:21:01;;;;;;;3.33;2.90;;;16.80;80.00;;;;;;5013199;28;20387;-69
2022/11/23 10:24:02;;;;;;;4.70;2.90;;;17.00;79.70;;;;;;5012228;28;20461;-70
2022/11/23 10:26:33;;;;;;;5.87;4.30;;;17.00;78.80;;;;;;5012389;28;20787;-70
2022/11/23 10:29:25;;;;;;;7.47;3.90;;;17.10;78.20;;;;;;5013569;28;20472;-69
2022/11/23 10:31:52;;;;;;;6.03;3.00;;;16.70;78.50;;;;;;5012988;28;20394;-69
2022/11/23 10:34:49;;;;;;;6.53;2.67;;;16.00;77.90;;;;;;5012279;28;20980;-70
2022/11/23 10:37:16;;;;;;;4.97;2.30;;;16.20;80.70;;;;;;4974498;28;20430;-69
2022/11/23 10:39:41;;;;;;;4.63;2.83;;;15.80;82.50;;;;;;4975774;28;20433;-69
2022/11/23 10:42:21;;;;;;;4.37;2.73;;;16.00;82.30;;;;;;4993574;28;20450;-69
2022/11/23 10:44:50;;;;;;;4.13;2.47;;;16.40;82.10;;;;;;4993131;28;20575;-69
2022/11/23 10:47:49;;;;;;;3.60;2.13;;;16.20;80.60;;;;;;4993733;28;20414;-69
2022/11/23 10:50:36;;;;;;;7.10;2.53;;;16.30;80.50;;;;;;4981936;28;20421;-69
2022/11/23 10:53:04;;;;;;;2.70;2.50;;;16.00;79.80;;;;;;4993912;28;20419;-69
2022/11/23 10:55:32;;;;;;;7.37;4.83;;;15.90;80.70;;;;;;4992945;28;20417;-70
2022/11/23 10:57:59;;;;;;;4.20;3.80;;;16.00;80.30;;;;;;4993237;28;20410;-68
2022/11/23 11:00:27;;;;;;;4.83;3.00;;;15.80;80.90;;;;;;4993464;28;20497;-69
2022/11/23 11:02:57;;;;;;;4.23;2.50;;;16.10;80.00;;;;;;4992803;28;20540;-69
2022/11/23 11:05:27;;;;;;;2.47;2.10;;;15.90;79.30;;;;;;4993312;28;20401;-69
2022/11/23 11:07:54;;;;;;;4.20;3.90;;;16.10;79.00;;;;;;5018578;28;20566;-69
2022/11/23 11:10:56;;;;;;;4.30;3.13;;;15.80;78.80;;;;;;5032437;28;20463;-69
2022/11/23 11:13:44;;;;;;;3.97;3.67;;;15.70;81.30;;;;;;5019702;28;20922;-69
2022/11/23 11:16:23;;;;;;;4.20;3.90;;;16.00;80.20;;;;;;4998734;28;20820;-69
2022/11/23 11:18:49;;;;;;;4.70;2.83;;;15.70;78.90;;;;;;5031373;28;20884;-69
2022/11/23 11:21:34;;;;;;;5.30;3.00;;;15.70;78.80;;;;;;5032206;28;20500;-69
2022/11/23 11:24:03;;;;;;;6.23;4.90;;;16.10;79.30;;;;;;5032584;28;20487;-69
2022/11/23 11:26:32;;;;;;;4.40;3.10;;;16.50;77.20;;;;;;5040076;28;20463;-69
2022/11/23 11:29:01;;;;;;;3.53;3.13;;;16.70;75.30;;;;;;5052256;28;20781;-69
2022/11/23 11:32:09;;;;;;;3.20;2.37;;;16.60;74.80;;;;;;5052591;28;20420;-69
2022/11/23 11:35:01;;;;;;;3.50;2.97;;;16.80;74.70;;;;;;5013330;28;20523;-69
2022/11/23 11:37:29;;;;;;;5.10;4.70;;;16.80;73.10;;;;;;5051727;28;20432;-69
2022/11/23 11:40:05;;;;;;;5.80;3.20;;;16.90;73.60;;;;;;5051575;28;20428;-69
2022/11/23 11:42:38;;;;;;;2.77;2.53;;;16.50;74.10;;;;;;5051301;28;20447;-70
2022/11/23 11:45:11;;;;;;;4.20;2.70;;;16.70;74.40;;;;;;5052185;28;20806;-69
2022/11/23 11:47:42;;;;;;;5.17;3.00;;;16.80;71.90;;;;;;5051026;28;20802;-69
2022/11/23 11:50:37;;;;;;;2.90;2.47;;;16.70;72.20;;;;;;5052223;28;20496;-69
2022/11/23 11:53:12;;;;;;;4.20;3.17;;;16.80;70.10;;;;;;5051976;28;20408;-69
2022/11/23 11:55:59;;;;;;;4.37;2.30;;;16.10;70.40;;;;;;5050795;28;20519;-69
2022/11/23 11:58:25;;;;;;;6.93;2.50;;;15.80;73.90;;;;;;5052030;28;20402;-69
2022/11/23 12:01:38;;;;;;;4.60;3.00;;;15.40;75.10;;;;;;5051169;28;20461;-69
2022/11/23 12:04:18;;;;;;;5.13;2.87;;;15.50;77.70;;;;;;5052070;28;20834;-69
2022/11/23 12:06:53;;;;;;;7.57;3.83;;;15.70;78.90;;;;;;5051040;28;20481;-69
2022/11/23 12:09:25;;;;;;;6.13;2.93;;;15.60;77.50;;;;;;5034438;28;20907;-69
2022/11/23 12:11:51;;;;;;;4.77;3.50;;;15.00;78.90;;;;;;5033943;28;20402;-69
2022/11/23 12:14:17;;;;;;;8.77;4.60;;;14.70;82.90;;;;;;5052061;28;20418;-68
2022/11/23 12:17:22;;;;;;;5.33;3.73;;;14.80;81.80;;;;;;5051272;28;20456;-69
2022/11/23 12:20:06;;;;;;;4.63;3.90;;;14.90;83.60;;;;;;5051308;28;20763;-69
2022/11/23 12:22:40;;;;;;;4.93;3.70;;;15.10;82.70;;;;;;5034066;28;20532;-69
2022/11/23 12:25:13;;;;;;;4.77;3.70;;;15.20;81.30;;;;;;5051914;28;20403;-69
2022/11/23 12:28:17;;;;;;;4.20;3.70;;;14.90;81.80;;;;;;5034035;28;20426;-69
2022/11/23 12:30:43;;;;;;;7.67;3.80;;;14.60;82.10;;;;;;5004378;28;20430;-69
2022/11/23 12:33:23;;;;;;;4.20;3.30;;;14.50;82.30;;;;;;5035483;28;20415;-69
2022/11/23 12:36:16;;;;;;;5.67;3.60;;;14.60;83.00;;;;;;5037188;28;20216;-69
2022/11/23 12:39:12;;;;;;;8.20;4.00;;;14.20;84.60;;;;;;5053989;28;20444;-69
2022/11/23 12:41:56;;;;;;;3.97;3.57;;;14.00;85.50;;;;;;5054687;28;20482;-69
2022/11/23 12:44:57;;;;;;;4.20;3.90;;;13.80;86.00;;;;;;5055121;28;20411;-69
2022/11/23 12:47:43;;;;;;;6.27;3.67;;;13.70;88.20;;;;;;5054883;28;20451;-69
2022/11/23 12:50:35;;;;;;;5.77;3.80;;;13.80;87.20;;;;;;5055078;28;20412;-68
2022/11/23 12:53:13;;;;;;;4.30;3.50;;;13.80;88.30;;;;;;5024039;28;20787;-69
2022/11/23 12:55:50;;;;;;;4.00;3.70;;;13.90;88.70;;;;;;5054483;28;20501;-69
2022/11/23 12:58:27;;;;;;;4.50;3.30;;;13.80;86.00;;;;;;5054960;28;20509;-69
2022/11/23 13:00:56;;;;;;;5.93;5.40;;;13.80;88.00;;;;;;5054231;28;20449;-69
2022/11/23 13:03:59;;;;;;;4.30;3.90;;;13.90;86.20;;;;;;5036884;28;21024;-70